Chicago O'Hare Intl Information

FAA: ORD - ICAO: KORD

Chicago O'Hare Intl (Airport) Location

State Illinois
County Cook
City Chicago
Chicago O'Hare Intl (Airport) is 14 miles northwest of Chicago, IL.
Latitude 41-58-28.2790N
Longitude 087-54-23.7500W
Elevation 680ft

Chicago O'Hare Intl METARs

METAR KORD 251651Z 28008KT 10SM FEW035 M12/M20 A3028 RMK AO2 SLP269 T11171200
Altimeter 30.28"
Temperature -11.7°C (10.9°F)
Wind 280° at 8KT
Clouds few at 3,500ft
Visibility 10.0mi
Time observed: 2022-01-25T16:51:00Z

Chicago O'Hare Intl (Airport) Details

Status Operational
Activation February 1944
Ownership Public
Usage Public
Chart CHICAGO
ATC on-site Yes
Beacon schedule sunset-sunrise
Beacon color clear green

Chicago O'Hare Intl (Airport) Contacts

Owner CITY OF CHICAGO
Owner address P.O. BOX 66142, 10510 WEST ZEMKE RO, 10510 WEST ZEMKE RO, CHICAGO, IL 60666
Owner phone 773-686-2200
Manager PAT CARR, DIR EMER MGMT
Manager address 17355 S. 68TH CT, TINLEY PARK, IL 60477
Manager phone 708-444-5601

Chicago O'Hare Intl Radio Frequencies

Chicago O'Hare Intl (Airport) Radio Frequencies

UNICOM 122.95
Common traffic advisory frequency (CTAF) N/A